sensor_id;sensor_type;location;lat;lon;timestamp;P1;durP1;ratioP1;P2;durP2;ratioP2
64873;SDS011;51367;45.204;38.576;2023-01-31T00:01:04;2.00;;;1.80;;
64873;SDS011;51367;45.204;38.576;2023-01-31T00:03:32;4.50;;;2.63;;
64873;SDS011;51367;45.204;38.576;2023-01-31T00:06:07;3.22;;;2.92;;
64873;SDS011;51367;45.204;38.576;2023-01-31T00:08:34;4.43;;;2.22;;
64873;SDS011;51367;45.204;38.576;2023-01-31T00:11:00;5.78;;;2.45;;
64873;SDS011;51367;45.204;38.576;2023-01-31T00:13:26;2.28;;;2.08;;
64873;SDS011;51367;45.204;38.576;2023-01-31T00:15:55;14.30;;;2.72;;
64873;SDS011;51367;45.204;38.576;2023-01-31T00:18:21;2.42;;;2.03;;
64873;SDS011;51367;45.204;38.576;2023-01-31T00:20:47;7.45;;;3.20;;
64873;SDS011;51367;45.204;38.576;2023-01-31T00:23:13;2.83;;;2.58;;
64873;SDS011;51367;45.204;38.576;2023-01-31T00:25:39;4.05;;;2.17;;
64873;SDS011;51367;45.204;38.576;2023-01-31T00:28:05;4.35;;;2.78;;
64873;SDS011;51367;45.204;38.576;2023-01-31T00:30:32;2.95;;;2.67;;
64873;SDS011;51367;45.204;38.576;2023-01-31T00:32:59;5.07;;;2.63;;
64873;SDS011;51367;45.204;38.576;2023-01-31T00:35:25;2.65;;;2.45;;
64873;SDS011;51367;45.204;38.576;2023-01-31T00:37:51;4.20;;;2.72;;
64873;SDS011;51367;45.204;38.576;2023-01-31T00:40:17;2.35;;;2.10;;
64873;SDS011;51367;45.204;38.576;2023-01-31T00:42:44;3.70;;;2.65;;
64873;SDS011;51367;45.204;38.576;2023-01-31T00:45:10;4.90;;;3.97;;
64873;SDS011;51367;45.204;38.576;2023-01-31T00:47:37;2.95;;;2.75;;
64873;SDS011;51367;45.204;38.576;2023-01-31T00:50:03;2.38;;;2.22;;
64873;SDS011;51367;45.204;38.576;2023-01-31T00:52:30;5.97;;;3.95;;
64873;SDS011;51367;45.204;38.576;2023-01-31T00:54:56;4.43;;;4.03;;
64873;SDS011;51367;45.204;38.576;2023-01-31T00:57:22;3.50;;;3.20;;
64873;SDS011;51367;45.204;38.576;2023-01-31T00:59:49;5.03;;;3.38;;
64873;SDS011;51367;45.204;38.576;2023-01-31T01:02:15;3.40;;;3.17;;
64873;SDS011;51367;45.204;38.576;2023-01-31T01:04:41;3.63;;;3.15;;
64873;SDS011;51367;45.204;38.576;2023-01-31T01:07:07;8.57;;;3.67;;
64873;SDS011;51367;45.204;38.576;2023-01-31T01:09:32;4.40;;;3.58;;
64873;SDS011;51367;45.204;38.576;2023-01-31T01:11:58;3.50;;;3.20;;
64873;SDS011;51367;45.204;38.576;2023-01-31T01:14:24;2.78;;;2.30;;
64873;SDS011;51367;45.204;38.576;2023-01-31T01:16:50;3.90;;;3.00;;
64873;SDS011;51367;45.204;38.576;2023-01-31T01:19:18;3.47;;;2.45;;
64873;SDS011;51367;45.204;38.576;2023-01-31T01:21:46;5.05;;;2.53;;
64873;SDS011;51367;45.204;38.576;2023-01-31T01:24:16;3.13;;;2.58;;
64873;SDS011;51367;45.204;38.576;2023-01-31T01:26:44;6.15;;;2.72;;
64873;SDS011;51367;45.204;38.576;2023-01-31T01:29:10;3.00;;;2.03;;
64873;SDS011;51367;45.204;38.576;2023-01-31T01:31:37;3.08;;;2.88;;
64873;SDS011;51367;45.204;38.576;2023-01-31T01:34:07;2.30;;;2.15;;
64873;SDS011;51367;45.204;38.576;2023-01-31T01:36:38;2.90;;;2.70;;
64873;SDS011;51367;45.204;38.576;2023-01-31T01:39:07;4.63;;;2.67;;
64873;SDS011;51367;45.204;38.576;2023-01-31T01:41:35;2.85;;;2.58;;
64873;SDS011;51367;45.204;38.576;2023-01-31T01:44:03;6.57;;;2.60;;
64873;SDS011;51367;45.204;38.576;2023-01-31T01:46:49;3.25;;;2.42;;
64873;SDS011;51367;45.204;38.576;2023-01-31T01:51:50;3.13;;;2.90;;
64873;SDS011;51367;45.204;38.576;2023-01-31T01:54:19;4.30;;;3.45;;
64873;SDS011;51367;45.204;38.576;2023-01-31T01:56:51;3.20;;;2.75;;
64873;SDS011;51367;45.204;38.576;2023-01-31T01:59:24;2.05;;;1.77;;
64873;SDS011;51367;45.204;38.576;2023-01-31T02:01:55;2.65;;;2.20;;
64873;SDS011;51367;45.204;38.576;2023-01-31T02:04:22;3.05;;;1.70;;
64873;SDS011;51367;45.204;38.576;2023-01-31T02:06:53;1.38;;;1.30;;
64873;SDS011;51367;45.204;38.576;2023-01-31T02:12:14;3.92;;;2.25;;
64873;SDS011;51367;45.204;38.576;2023-01-31T02:14:40;3.60;;;2.40;;
64873;SDS011;51367;45.204;38.576;2023-01-31T02:17:11;2.75;;;1.77;;
64873;SDS011;51367;45.204;38.576;2023-01-31T02:22:32;4.53;;;2.13;;
64873;SDS011;51367;45.204;38.576;2023-01-31T02:27:57;1.38;;;1.27;;
64873;SDS011;51367;45.204;38.576;2023-01-31T02:30:40;3.38;;;1.60;;
64873;SDS011;51367;45.204;38.576;2023-01-31T02:42:01;1.75;;;1.55;;
64873;SDS011;51367;45.204;38.576;2023-01-31T02:44:37;1.67;;;1.58;;
64873;SDS011;51367;45.204;38.576;2023-01-31T02:47:37;2.35;;;1.90;;
64873;SDS011;51367;45.204;38.576;2023-01-31T02:50:26;1.85;;;1.75;;
64873;SDS011;51367;45.204;38.576;2023-01-31T02:55:44;6.38;;;2.00;;
64873;SDS011;51367;45.204;38.576;2023-01-31T02:58:37;2.47;;;2.17;;
64873;SDS011;51367;45.204;38.576;2023-01-31T03:01:08;14.68;;;2.30;;
64873;SDS011;51367;45.204;38.576;2023-01-31T03:08:39;2.15;;;1.95;;
64873;SDS011;51367;45.204;38.576;2023-01-31T03:11:09;2.28;;;2.08;;
64873;SDS011;51367;45.204;38.576;2023-01-31T03:21:46;1.10;;;1.10;;
64873;SDS011;51367;45.204;38.576;2023-01-31T03:24:17;2.47;;;2.20;;
64873;SDS011;51367;45.204;38.576;2023-01-31T03:26:45;2.30;;;2.10;;
64873;SDS011;51367;45.204;38.576;2023-01-31T03:29:15;3.28;;;2.20;;
64873;SDS011;51367;45.204;38.576;2023-01-31T03:31:47;2.55;;;2.35;;
64873;SDS011;51367;45.204;38.576;2023-01-31T03:34:18;2.97;;;2.78;;
64873;SDS011;51367;45.204;38.576;2023-01-31T03:40:09;1.98;;;1.83;;
64873;SDS011;51367;45.204;38.576;2023-01-31T03:45:31;2.45;;;2.25;;
64873;SDS011;51367;45.204;38.576;2023-01-31T03:48:34;2.13;;;1.35;;
64873;SDS011;51367;45.204;38.576;2023-01-31T03:51:05;9.57;;;2.63;;
64873;SDS011;51367;45.204;38.576;2023-01-31T03:53:36;1.85;;;1.75;;
64873;SDS011;51367;45.204;38.576;2023-01-31T03:56:36;3.03;;;2.25;;
64873;SDS011;51367;45.204;38.576;2023-01-31T03:59:11;0.95;;;0.95;;
64873;SDS011;51367;45.204;38.576;2023-01-31T04:01:47;1.95;;;1.85;;
64873;SDS011;51367;45.204;38.576;2023-01-31T04:06:42;2.70;;;2.50;;
64873;SDS011;51367;45.204;38.576;2023-01-31T04:09:08;2.35;;;1.83;;
64873;SDS011;51367;45.204;38.576;2023-01-31T04:11:36;2.03;;;1.92;;
64873;SDS011;51367;45.204;38.576;2023-01-31T04:14:04;1.08;;;1.08;;
64873;SDS011;51367;45.204;38.576;2023-01-31T04:16:31;2.60;;;2.40;;
64873;SDS011;51367;45.204;38.576;2023-01-31T04:18:57;1.92;;;1.83;;
64873;SDS011;51367;45.204;38.576;2023-01-31T04:21:23;1.80;;;1.70;;
64873;SDS011;51367;45.204;38.576;2023-01-31T04:23:49;0.45;;;0.45;;
64873;SDS011;51367;45.204;38.576;2023-01-31T04:26:15;1.02;;;1.02;;
64873;SDS011;51367;45.204;38.576;2023-01-31T04:28:41;1.42;;;1.38;;
64873;SDS011;51367;45.204;38.576;2023-01-31T04:31:07;1.23;;;1.13;;
64873;SDS011;51367;45.204;38.576;2023-01-31T04:33:33;1.42;;;1.40;;
64873;SDS011;51367;45.204;38.576;2023-01-31T04:35:59;1.60;;;1.50;;
64873;SDS011;51367;45.204;38.576;2023-01-31T04:38:25;0.65;;;0.65;;
64873;SDS011;51367;45.204;38.576;2023-01-31T04:40:51;0.35;;;0.35;;
64873;SDS011;51367;45.204;38.576;2023-01-31T04:43:17;1.55;;;1.45;;
64873;SDS011;51367;45.204;38.576;2023-01-31T04:45:43;2.35;;;2.15;;
64873;SDS011;51367;45.204;38.576;2023-01-31T04:48:09;3.25;;;1.02;;
64873;SDS011;51367;45.204;38.576;2023-01-31T04:50:35;1.63;;;1.52;;
64873;SDS011;51367;45.204;38.576;2023-01-31T04:53:01;1.00;;;1.00;;
64873;SDS011;51367;45.204;38.576;2023-01-31T04:55:27;1.27;;;1.17;;
64873;SDS011;51367;45.204;38.576;2023-01-31T04:57:53;2.22;;;2.13;;
64873;SDS011;51367;45.204;38.576;2023-01-31T05:00:19;1.77;;;1.67;;
64873;SDS011;51367;45.204;38.576;2023-01-31T05:02:45;0.90;;;0.90;;
64873;SDS011;51367;45.204;38.576;2023-01-31T05:05:11;1.98;;;1.85;;
64873;SDS011;51367;45.204;38.576;2023-01-31T05:07:37;3.08;;;2.03;;
64873;SDS011;51367;45.204;38.576;2023-01-31T05:10:04;0.93;;;0.90;;
64873;SDS011;51367;45.204;38.576;2023-01-31T05:12:31;2.00;;;1.83;;
64873;SDS011;51367;45.204;38.576;2023-01-31T05:14:57;1.52;;;1.42;;
64873;SDS011;51367;45.204;38.576;2023-01-31T05:17:23;2.28;;;2.17;;
64873;SDS011;51367;45.204;38.576;2023-01-31T05:19:50;1.90;;;1.80;;
64873;SDS011;51367;45.204;38.576;2023-01-31T05:22:16;2.00;;;1.90;;
64873;SDS011;51367;45.204;38.576;2023-01-31T05:24:47;2.22;;;1.50;;
64873;SDS011;51367;45.204;38.576;2023-01-31T05:27:13;1.98;;;1.88;;
64873;SDS011;51367;45.204;38.576;2023-01-31T05:29:39;2.67;;;1.92;;
64873;SDS011;51367;45.204;38.576;2023-01-31T05:32:06;1.73;;;1.63;;
64873;SDS011;51367;45.204;38.576;2023-01-31T05:34:33;1.85;;;1.75;;
64873;SDS011;51367;45.204;38.576;2023-01-31T05:36:59;2.80;;;2.42;;
64873;SDS011;51367;45.204;38.576;2023-01-31T05:39:26;0.90;;;0.90;;
64873;SDS011;51367;45.204;38.576;2023-01-31T05:41:53;2.42;;;1.40;;
64873;SDS011;51367;45.204;38.576;2023-01-31T05:44:19;3.53;;;2.10;;
64873;SDS011;51367;45.204;38.576;2023-01-31T05:46:46;1.48;;;1.38;;
64873;SDS011;51367;45.204;38.576;2023-01-31T05:49:12;2.10;;;1.98;;
64873;SDS011;51367;45.204;38.576;2023-01-31T05:51:39;1.83;;;1.35;;
64873;SDS011;51367;45.204;38.576;2023-01-31T05:54:06;1.88;;;1.77;;
64873;SDS011;51367;45.204;38.576;2023-01-31T05:56:33;0.77;;;0.77;;
64873;SDS011;51367;45.204;38.576;2023-01-31T05:58:59;3.70;;;1.80;;
64873;SDS011;51367;45.204;38.576;2023-01-31T06:01:27;1.60;;;1.50;;
64873;SDS011;51367;45.204;38.576;2023-01-31T06:03:53;0.88;;;0.88;;
64873;SDS011;51367;45.204;38.576;2023-01-31T06:06:19;2.95;;;2.00;;
64873;SDS011;51367;45.204;38.576;2023-01-31T06:08:45;1.38;;;1.27;;
64873;SDS011;51367;45.204;38.576;2023-01-31T06:11:12;1.60;;;1.50;;
64873;SDS011;51367;45.204;38.576;2023-01-31T06:13:39;1.40;;;1.30;;
64873;SDS011;51367;45.204;38.576;2023-01-31T06:16:09;2.47;;;1.98;;
64873;SDS011;51367;45.204;38.576;2023-01-31T06:18:35;1.73;;;1.63;;
64873;SDS011;51367;45.204;38.576;2023-01-31T06:21:01;1.38;;;1.25;;
64873;SDS011;51367;45.204;38.576;2023-01-31T06:23:27;1.05;;;0.90;;
64873;SDS011;51367;45.204;38.576;2023-01-31T06:25:53;4.30;;;2.13;;
64873;SDS011;51367;45.204;38.576;2023-01-31T06:28:20;2.03;;;1.63;;
64873;SDS011;51367;45.204;38.576;2023-01-31T06:30:47;0.65;;;0.65;;
64873;SDS011;51367;45.204;38.576;2023-01-31T06:33:13;1.40;;;1.35;;
64873;SDS011;51367;45.204;38.576;2023-01-31T06:35:40;5.82;;;1.40;;
64873;SDS011;51367;45.204;38.576;2023-01-31T06:38:06;0.40;;;0.40;;
64873;SDS011;51367;45.204;38.576;2023-01-31T06:40:32;2.33;;;2.13;;
64873;SDS011;51367;45.204;38.576;2023-01-31T06:43:00;1.25;;;1.25;;
64873;SDS011;51367;45.204;38.576;2023-01-31T06:45:27;1.77;;;1.67;;
64873;SDS011;51367;45.204;38.576;2023-01-31T06:47:53;1.55;;;1.45;;
64873;SDS011;51367;45.204;38.576;2023-01-31T06:50:19;1.85;;;1.70;;
64873;SDS011;51367;45.204;38.576;2023-01-31T06:52:45;0.90;;;0.88;;
64873;SDS011;51367;45.204;38.576;2023-01-31T06:55:11;2.03;;;1.67;;
64873;SDS011;51367;45.204;38.576;2023-01-31T06:57:44;1.75;;;1.63;;
64873;SDS011;51367;45.204;38.576;2023-01-31T07:00:11;2.50;;;1.98;;
64873;SDS011;51367;45.204;38.576;2023-01-31T07:02:38;1.02;;;1.02;;
64873;SDS011;51367;45.204;38.576;2023-01-31T07:05:04;2.05;;;1.77;;
64873;SDS011;51367;45.204;38.576;2023-01-31T07:07:30;1.73;;;1.63;;
64873;SDS011;51367;45.204;38.576;2023-01-31T07:09:56;2.58;;;2.38;;
64873;SDS011;51367;45.204;38.576;2023-01-31T07:12:22;1.83;;;1.73;;
64873;SDS011;51367;45.204;38.576;2023-01-31T07:14:48;4.60;;;1.88;;
64873;SDS011;51367;45.204;38.576;2023-01-31T07:17:14;3.47;;;2.55;;
64873;SDS011;51367;45.204;38.576;2023-01-31T07:19:40;2.60;;;2.50;;
64873;SDS011;51367;45.204;38.576;2023-01-31T07:22:06;2.50;;;2.30;;
64873;SDS011;51367;45.204;38.576;2023-01-31T07:24:32;3.10;;;2.55;;
64873;SDS011;51367;45.204;38.576;2023-01-31T07:26:57;3.85;;;2.55;;
64873;SDS011;51367;45.204;38.576;2023-01-31T07:29:25;2.63;;;2.42;;
64873;SDS011;51367;45.204;38.576;2023-01-31T07:31:51;2.25;;;1.90;;
64873;SDS011;51367;45.204;38.576;2023-01-31T07:34:19;2.40;;;2.20;;
64873;SDS011;51367;45.204;38.576;2023-01-31T07:36:47;3.00;;;2.70;;
64873;SDS011;51367;45.204;38.576;2023-01-31T07:39:14;2.22;;;1.80;;
64873;SDS011;51367;45.204;38.576;2023-01-31T07:41:40;4.93;;;2.28;;
64873;SDS011;51367;45.204;38.576;2023-01-31T07:44:06;3.45;;;2.72;;
64873;SDS011;51367;45.204;38.576;2023-01-31T07:46:34;3.47;;;3.15;;
64873;SDS011;51367;45.204;38.576;2023-01-31T07:49:00;2.28;;;2.13;;
64873;SDS011;51367;45.204;38.576;2023-01-31T07:51:27;3.55;;;3.17;;
64873;SDS011;51367;45.204;38.576;2023-01-31T07:53:52;3.15;;;2.83;;
64873;SDS011;51367;45.204;38.576;2023-01-31T07:56:19;2.30;;;2.15;;
64873;SDS011;51367;45.204;38.576;2023-01-31T07:58:46;2.30;;;2.10;;
64873;SDS011;51367;45.204;38.576;2023-01-31T08:01:20;3.95;;;3.60;;
64873;SDS011;51367;45.204;38.576;2023-01-31T08:04:06;3.80;;;3.47;;
64873;SDS011;51367;45.204;38.576;2023-01-31T08:06:33;2.65;;;2.47;;
64873;SDS011;51367;45.204;38.576;2023-01-31T08:09:00;2.60;;;2.40;;
64873;SDS011;51367;45.204;38.576;2023-01-31T08:11:27;3.60;;;2.15;;
64873;SDS011;51367;45.204;38.576;2023-01-31T08:13:53;4.10;;;3.70;;
64873;SDS011;51367;45.204;38.576;2023-01-31T08:16:19;3.50;;;3.20;;
64873;SDS011;51367;45.204;38.576;2023-01-31T08:18:46;3.22;;;2.90;;
64873;SDS011;51367;45.204;38.576;2023-01-31T08:21:12;6.75;;;4.68;;
64873;SDS011;51367;45.204;38.576;2023-01-31T08:23:39;3.80;;;3.42;;
64873;SDS011;51367;45.204;38.576;2023-01-31T08:26:06;4.50;;;3.60;;
64873;SDS011;51367;45.204;38.576;2023-01-31T08:28:36;15.55;;;5.45;;
64873;SDS011;51367;45.204;38.576;2023-01-31T08:31:04;7.65;;;3.95;;
64873;SDS011;51367;45.204;38.576;2023-01-31T08:33:30;5.68;;;4.57;;
64873;SDS011;51367;45.204;38.576;2023-01-31T08:36:06;5.10;;;4.05;;
64873;SDS011;51367;45.204;38.576;2023-01-31T08:38:33;4.75;;;4.03;;
64873;SDS011;51367;45.204;38.576;2023-01-31T08:40:59;6.10;;;5.20;;
64873;SDS011;51367;45.204;38.576;2023-01-31T08:43:25;5.50;;;4.07;;
64873;SDS011;51367;45.204;38.576;2023-01-31T08:45:51;7.30;;;5.07;;
64873;SDS011;51367;45.204;38.576;2023-01-31T08:48:17;4.80;;;4.30;;
64873;SDS011;51367;45.204;38.576;2023-01-31T08:50:43;10.00;;;4.40;;
64873;SDS011;51367;45.204;38.576;2023-01-31T08:53:09;6.35;;;5.20;;
64873;SDS011;51367;45.204;38.576;2023-01-31T08:55:35;4.00;;;3.70;;
64873;SDS011;51367;45.204;38.576;2023-01-31T08:58:02;6.22;;;4.95;;
64873;SDS011;51367;45.204;38.576;2023-01-31T09:00:28;5.32;;;4.47;;
64873;SDS011;51367;45.204;38.576;2023-01-31T09:02:55;5.38;;;4.32;;
64873;SDS011;51367;45.204;38.576;2023-01-31T09:05:24;13.98;;;5.00;;
64873;SDS011;51367;45.204;38.576;2023-01-31T09:07:51;6.47;;;4.15;;
64873;SDS011;51367;45.204;38.576;2023-01-31T09:10:18;14.48;;;8.18;;
64873;SDS011;51367;45.204;38.576;2023-01-31T09:12:45;4.53;;;4.10;;
64873;SDS011;51367;45.204;38.576;2023-01-31T09:15:12;5.18;;;3.65;;
64873;SDS011;51367;45.204;38.576;2023-01-31T09:17:38;3.40;;;3.10;;
64873;SDS011;51367;45.204;38.576;2023-01-31T09:20:05;4.75;;;4.05;;
64873;SDS011;51367;45.204;38.576;2023-01-31T09:22:34;6.57;;;5.63;;
64873;SDS011;51367;45.204;38.576;2023-01-31T09:25:01;4.75;;;4.22;;
64873;SDS011;51367;45.204;38.576;2023-01-31T09:27:27;4.93;;;3.70;;
64873;SDS011;51367;45.204;38.576;2023-01-31T09:29:54;3.83;;;3.47;;
64873;SDS011;51367;45.204;38.576;2023-01-31T09:32:20;4.03;;;3.72;;
64873;SDS011;51367;45.204;38.576;2023-01-31T09:34:46;29.58;;;4.50;;
64873;SDS011;51367;45.204;38.576;2023-01-31T09:37:15;6.20;;;5.40;;
64873;SDS011;51367;45.204;38.576;2023-01-31T09:39:41;5.22;;;4.72;;
64873;SDS011;51367;45.204;38.576;2023-01-31T09:44:59;9.48;;;5.07;;
64873;SDS011;51367;45.204;38.576;2023-01-31T09:47:40;21.25;;;4.97;;
64873;SDS011;51367;45.204;38.576;2023-01-31T09:52:47;5.43;;;4.88;;
64873;SDS011;51367;45.204;38.576;2023-01-31T09:55:15;4.97;;;4.57;;
64873;SDS011;51367;45.204;38.576;2023-01-31T09:58:03;5.68;;;5.00;;
64873;SDS011;51367;45.204;38.576;2023-01-31T10:00:36;5.10;;;4.57;;
64873;SDS011;51367;45.204;38.576;2023-01-31T10:05:54;6.85;;;5.32;;
64873;SDS011;51367;45.204;38.576;2023-01-31T10:11:26;3.88;;;3.58;;
64873;SDS011;51367;45.204;38.576;2023-01-31T10:14:38;7.13;;;3.90;;
64873;SDS011;51367;45.204;38.576;2023-01-31T10:17:05;3.85;;;3.55;;
64873;SDS011;51367;45.204;38.576;2023-01-31T10:19:46;5.75;;;4.00;;
64873;SDS011;51367;45.204;38.576;2023-01-31T10:22:20;5.85;;;4.55;;
64873;SDS011;51367;45.204;38.576;2023-01-31T10:25:15;4.43;;;4.03;;
64873;SDS011;51367;45.204;38.576;2023-01-31T10:27:59;3.70;;;3.40;;
64873;SDS011;51367;45.204;38.576;2023-01-31T10:33:50;3.35;;;3.10;;
64873;SDS011;51367;45.204;38.576;2023-01-31T10:36:28;6.10;;;3.78;;
64873;SDS011;51367;45.204;38.576;2023-01-31T10:39:07;3.80;;;3.50;;
64873;SDS011;51367;45.204;38.576;2023-01-31T10:41:50;3.25;;;2.63;;
64873;SDS011;51367;45.204;38.576;2023-01-31T10:44:37;4.45;;;3.90;;
64873;SDS011;51367;45.204;38.576;2023-01-31T10:47:32;6.40;;;4.10;;
64873;SDS011;51367;45.204;38.576;2023-01-31T10:50:00;5.30;;;4.35;;
64873;SDS011;51367;45.204;38.576;2023-01-31T10:58:03;4.55;;;3.35;;
64873;SDS011;51367;45.204;38.576;2023-01-31T11:00:33;3.50;;;3.05;;
64873;SDS011;51367;45.204;38.576;2023-01-31T11:02:59;5.68;;;2.17;;
64873;SDS011;51367;45.204;38.576;2023-01-31T11:05:26;9.35;;;3.40;;
64873;SDS011;51367;45.204;38.576;2023-01-31T11:07:55;5.40;;;2.53;;
64873;SDS011;51367;45.204;38.576;2023-01-31T11:10:27;2.38;;;2.17;;
64873;SDS011;51367;45.204;38.576;2023-01-31T11:12:57;4.05;;;3.38;;
64873;SDS011;51367;45.204;38.576;2023-01-31T11:15:36;15.48;;;3.45;;
64873;SDS011;51367;45.204;38.576;2023-01-31T11:18:04;7.50;;;3.03;;
64873;SDS011;51367;45.204;38.576;2023-01-31T11:20:36;4.30;;;2.90;;
64873;SDS011;51367;45.204;38.576;2023-01-31T11:23:09;3.50;;;2.95;;
64873;SDS011;51367;45.204;38.576;2023-01-31T11:25:41;3.60;;;3.25;;
64873;SDS011;51367;45.204;38.576;2023-01-31T11:30:49;3.40;;;3.10;;
64873;SDS011;51367;45.204;38.576;2023-01-31T11:36:07;7.57;;;3.67;;
64873;SDS011;51367;45.204;38.576;2023-01-31T11:38:35;3.28;;;2.97;;
64873;SDS011;51367;45.204;38.576;2023-01-31T11:41:01;3.45;;;3.15;;
64873;SDS011;51367;45.204;38.576;2023-01-31T11:43:46;3.40;;;3.10;;
64873;SDS011;51367;45.204;38.576;2023-01-31T11:46:12;3.90;;;3.22;;
64873;SDS011;51367;45.204;38.576;2023-01-31T11:48:39;4.47;;;3.47;;
64873;SDS011;51367;45.204;38.576;2023-01-31T11:51:07;5.60;;;3.00;;
64873;SDS011;51367;45.204;38.576;2023-01-31T11:53:37;2.92;;;2.72;;
64873;SDS011;51367;45.204;38.576;2023-01-31T11:56:16;3.05;;;2.85;;
64873;SDS011;51367;45.204;38.576;2023-01-31T11:58:53;3.28;;;2.92;;
64873;SDS011;51367;45.204;38.576;2023-01-31T12:01:23;2.47;;;2.27;;
64873;SDS011;51367;45.204;38.576;2023-01-31T12:03:55;3.45;;;2.78;;
64873;SDS011;51367;45.204;38.576;2023-01-31T12:06:27;2.10;;;1.92;;
64873;SDS011;51367;45.204;38.576;2023-01-31T12:09:05;1.77;;;1.67;;
64873;SDS011;51367;45.204;38.576;2023-01-31T12:11:51;1.23;;;1.13;;
64873;SDS011;51367;45.204;38.576;2023-01-31T12:14:22;2.03;;;1.92;;
64873;SDS011;51367;45.204;38.576;2023-01-31T12:16:49;1.48;;;1.38;;
64873;SDS011;51367;45.204;38.576;2023-01-31T12:22:05;4.13;;;2.40;;
64873;SDS011;51367;45.204;38.576;2023-01-31T12:30:50;2.42;;;1.88;;
64873;SDS011;51367;45.204;38.576;2023-01-31T12:36:03;3.10;;;2.77;;
64873;SDS011;51367;45.204;38.576;2023-01-31T12:41:32;2.60;;;2.40;;
64873;SDS011;51367;45.204;38.576;2023-01-31T12:49:56;2.70;;;2.35;;
64873;SDS011;51367;45.204;38.576;2023-01-31T12:53:04;2.17;;;1.90;;
64873;SDS011;51367;45.204;38.576;2023-01-31T12:55:46;1.55;;;1.27;;
64873;SDS011;51367;45.204;38.576;2023-01-31T13:04:17;1.67;;;1.33;;
64873;SDS011;51367;45.204;38.576;2023-01-31T13:06:46;3.33;;;2.22;;
64873;SDS011;51367;45.204;38.576;2023-01-31T13:09:19;2.97;;;2.65;;
64873;SDS011;51367;45.204;38.576;2023-01-31T13:11:58;2.05;;;1.95;;
64873;SDS011;51367;45.204;38.576;2023-01-31T13:14:42;2.38;;;2.15;;
64873;SDS011;51367;45.204;38.576;2023-01-31T13:17:32;1.90;;;1.80;;
64873;SDS011;51367;45.204;38.576;2023-01-31T13:20:25;1.88;;;1.63;;
64873;SDS011;51367;45.204;38.576;2023-01-31T13:22:55;4.05;;;1.45;;
64873;SDS011;51367;45.204;38.576;2023-01-31T13:30:57;2.92;;;2.40;;
64873;SDS011;51367;45.204;38.576;2023-01-31T13:36:40;5.30;;;4.78;;
64873;SDS011;51367;45.204;38.576;2023-01-31T13:38:41;7.63;;;6.88;;
64873;SDS011;51367;45.204;38.576;2023-01-31T13:41:16;6.53;;;4.68;;
64873;SDS011;51367;45.204;38.576;2023-01-31T13:43:49;9.63;;;8.65;;
64873;SDS011;51367;45.204;38.576;2023-01-31T13:46:15;32.60;;;18.85;;
64873;SDS011;51367;45.204;38.576;2023-01-31T13:48:47;16.55;;;14.73;;
64873;SDS011;51367;45.204;38.576;2023-01-31T13:51:29;9.63;;;7.47;;
64873;SDS011;51367;45.204;38.576;2023-01-31T13:54:38;7.82;;;5.78;;
64873;SDS011;51367;45.204;38.576;2023-01-31T13:57:16;4.28;;;3.33;;
64873;SDS011;51367;45.204;38.576;2023-01-31T14:00:07;18.02;;;11.23;;
64873;SDS011;51367;45.204;38.576;2023-01-31T14:13:39;4.32;;;3.67;;
64873;SDS011;51367;45.204;38.576;2023-01-31T14:21:49;5.93;;;5.43;;
64873;SDS011;51367;45.204;38.576;2023-01-31T14:27:25;7.50;;;4.85;;
64873;SDS011;51367;45.204;38.576;2023-01-31T14:38:14;4.55;;;4.00;;
64873;SDS011;51367;45.204;38.576;2023-01-31T14:46:39;1.63;;;1.52;;
64873;SDS011;51367;45.204;38.576;2023-01-31T14:52:30;0.98;;;0.98;;
64873;SDS011;51367;45.204;38.576;2023-01-31T14:58:11;5.53;;;2.10;;
64873;SDS011;51367;45.204;38.576;2023-01-31T15:00:46;2.05;;;1.60;;
64873;SDS011;51367;45.204;38.576;2023-01-31T15:03:16;2.75;;;2.42;;
64873;SDS011;51367;45.204;38.576;2023-01-31T15:06:11;1.83;;;1.08;;
64873;SDS011;51367;45.204;38.576;2023-01-31T15:08:46;1.35;;;1.25;;
64873;SDS011;51367;45.204;38.576;2023-01-31T15:13:53;2.58;;;1.75;;
64873;SDS011;51367;45.204;38.576;2023-01-31T15:18:53;1.73;;;1.63;;
64873;SDS011;51367;45.204;38.576;2023-01-31T15:21:35;3.80;;;2.20;;
64873;SDS011;51367;45.204;38.576;2023-01-31T15:24:11;3.47;;;2.65;;
64873;SDS011;51367;45.204;38.576;2023-01-31T15:26:45;2.65;;;2.45;;
64873;SDS011;51367;45.204;38.576;2023-01-31T15:29:15;2.63;;;2.08;;
64873;SDS011;51367;45.204;38.576;2023-01-31T15:31:47;4.88;;;2.85;;
64873;SDS011;51367;45.204;38.576;2023-01-31T15:34:20;2.30;;;2.10;;
64873;SDS011;51367;45.204;38.576;2023-01-31T15:37:03;2.30;;;2.10;;
64873;SDS011;51367;45.204;38.576;2023-01-31T15:39:42;2.80;;;2.53;;
64873;SDS011;51367;45.204;38.576;2023-01-31T15:44:49;3.78;;;2.97;;
64873;SDS011;51367;45.204;38.576;2023-01-31T15:47:22;2.03;;;1.88;;
64873;SDS011;51367;45.204;38.576;2023-01-31T15:49:48;1.10;;;0.93;;
64873;SDS011;51367;45.204;38.576;2023-01-31T15:52:21;3.80;;;3.30;;
64873;SDS011;51367;45.204;38.576;2023-01-31T15:54:57;2.95;;;2.53;;
64873;SDS011;51367;45.204;38.576;2023-01-31T15:57:48;5.15;;;4.15;;
64873;SDS011;51367;45.204;38.576;2023-01-31T16:00:29;4.80;;;3.72;;
64873;SDS011;51367;45.204;38.576;2023-01-31T16:02:58;2.10;;;1.90;;
64873;SDS011;51367;45.204;38.576;2023-01-31T16:05:26;1.85;;;1.75;;
64873;SDS011;51367;45.204;38.576;2023-01-31T16:07:59;3.83;;;3.53;;
64873;SDS011;51367;45.204;38.576;2023-01-31T16:10:26;6.05;;;3.70;;
64873;SDS011;51367;45.204;38.576;2023-01-31T16:12:54;2.83;;;2.47;;
64873;SDS011;51367;45.204;38.576;2023-01-31T16:15:23;4.53;;;3.22;;
64873;SDS011;51367;45.204;38.576;2023-01-31T16:17:51;5.35;;;4.60;;
64873;SDS011;51367;45.204;38.576;2023-01-31T16:23:23;2.90;;;2.38;;
64873;SDS011;51367;45.204;38.576;2023-01-31T16:25:53;4.28;;;3.03;;
64873;SDS011;51367;45.204;38.576;2023-01-31T16:28:23;2.90;;;2.60;;
64873;SDS011;51367;45.204;38.576;2023-01-31T16:30:51;4.50;;;3.25;;
64873;SDS011;51367;45.204;38.576;2023-01-31T16:33:20;4.22;;;3.55;;
64873;SDS011;51367;45.204;38.576;2023-01-31T16:36:00;4.47;;;4.05;;
64873;SDS011;51367;45.204;38.576;2023-01-31T16:38:31;5.22;;;3.97;;
64873;SDS011;51367;45.204;38.576;2023-01-31T16:40:58;4.40;;;2.85;;
64873;SDS011;51367;45.204;38.576;2023-01-31T16:43:28;1.65;;;1.55;;
64873;SDS011;51367;45.204;38.576;2023-01-31T16:46:06;4.22;;;3.47;;
64873;SDS011;51367;45.204;38.576;2023-01-31T16:49:01;3.45;;;2.03;;
64873;SDS011;51367;45.204;38.576;2023-01-31T16:51:42;2.30;;;2.10;;
64873;SDS011;51367;45.204;38.576;2023-01-31T16:56:41;4.30;;;3.67;;
64873;SDS011;51367;45.204;38.576;2023-01-31T17:02:15;2.65;;;2.45;;
64873;SDS011;51367;45.204;38.576;2023-01-31T17:05:27;2.22;;;2.13;;
64873;SDS011;51367;45.204;38.576;2023-01-31T17:08:00;2.63;;;2.40;;
64873;SDS011;51367;45.204;38.576;2023-01-31T17:10:31;2.10;;;2.00;;
64873;SDS011;51367;45.204;38.576;2023-01-31T17:13:04;4.13;;;3.60;;
64873;SDS011;51367;45.204;38.576;2023-01-31T17:15:35;5.35;;;2.65;;
64873;SDS011;51367;45.204;38.576;2023-01-31T17:18:01;5.60;;;3.70;;
64873;SDS011;51367;45.204;38.576;2023-01-31T17:20:27;2.80;;;2.60;;
64873;SDS011;51367;45.204;38.576;2023-01-31T17:22:52;4.05;;;2.50;;
64873;SDS011;51367;45.204;38.576;2023-01-31T17:25:19;5.10;;;3.55;;
64873;SDS011;51367;45.204;38.576;2023-01-31T17:27:51;5.38;;;3.38;;
64873;SDS011;51367;45.204;38.576;2023-01-31T17:30:18;3.17;;;2.90;;
64873;SDS011;51367;45.204;38.576;2023-01-31T17:32:45;3.17;;;2.72;;
64873;SDS011;51367;45.204;38.576;2023-01-31T17:37:47;3.70;;;2.80;;